createdAt,value
2023-03-15T00:04:16.788Z,75.92
2023-03-15T00:09:38.566Z,75.51
2023-03-15T00:15:00.373Z,76.24
2023-03-15T00:20:22.095Z,77.84
2023-03-15T00:25:45.705Z,76.93
2023-03-15T00:31:09.476Z,74.92
2023-03-15T00:36:32.602Z,76.72
2023-03-15T00:41:56.867Z,77.99
2023-03-15T00:47:18.903Z,77.64
2023-03-15T00:52:41.981Z,76.65
2023-03-15T00:58:03.751Z,79.40
2023-03-15T01:03:25.635Z,78.56
2023-03-15T01:08:47.974Z,77.80
2023-03-15T01:14:10.020Z,76.83
2023-03-15T01:19:31.786Z,74.89
2023-03-15T01:24:53.559Z,75.40
2023-03-15T01:30:15.398Z,75.59
2023-03-15T01:35:37.166Z,76.46
2023-03-15T01:40:59.895Z,76.51
2023-03-15T01:46:23.670Z,76.37
2023-03-15T01:51:51.254Z,75.46
2023-03-15T01:57:22.772Z,75.61
2023-03-15T02:03:00.580Z,73.92
2023-03-15T02:08:27.104Z,73.42
2023-03-15T02:13:50.051Z,71.90
2023-03-15T02:19:33.938Z,73.42
2023-03-15T02:25:06.828Z,74.73
2023-03-15T02:30:29.095Z,71.76
2023-03-15T02:35:51.408Z,72.13
2023-03-15T02:41:17.477Z,72.87
2023-03-15T02:46:39.742Z,73.47
2023-03-15T02:52:01.491Z,74.53
2023-03-15T02:57:23.257Z,73.51
2023-03-15T03:02:47.298Z,72.23
2023-03-15T03:08:09.107Z,72.26
2023-03-15T03:13:30.901Z,73.41
2023-03-15T03:18:52.678Z,71.70
2023-03-15T03:24:16.165Z,72.97
2023-03-15T03:29:37.899Z,74.82
2023-03-15T03:35:00.122Z,74.88
2023-03-15T03:40:21.907Z,75.25
2023-03-15T03:45:43.716Z,74.33
2023-03-15T03:51:05.764Z,73.28
2023-03-15T03:56:28.131Z,73.20
2023-03-15T04:01:51.185Z,72.68
2023-03-15T04:07:13.016Z,72.70
2023-03-15T04:12:34.887Z,73.30
2023-03-15T04:17:56.804Z,73.49
2023-03-15T04:23:21.718Z,72.44
2023-03-15T04:28:43.478Z,71.53
2023-03-15T04:34:05.771Z,72.42
2023-03-15T04:39:27.601Z,71.29
2023-03-15T04:44:49.474Z,70.58
2023-03-15T04:50:11.627Z,70.95
2023-03-15T04:55:33.408Z,71.47
2023-03-15T05:00:55.206Z,71.34
2023-03-15T05:06:16.925Z,71.22
2023-03-15T05:11:38.611Z,70.60
2023-03-15T05:17:02.210Z,72.43
2023-03-15T05:22:25.960Z,71.26
2023-03-15T05:27:47.724Z,71.24
2023-03-15T05:33:09.524Z,71.15
2023-03-15T05:38:31.235Z,69.99
2023-03-15T05:43:53.002Z,70.80
2023-03-15T05:49:14.723Z,71.63
2023-03-15T05:54:36.821Z,70.72
2023-03-15T05:59:58.618Z,69.38
2023-03-15T06:05:20.329Z,67.84
2023-03-15T06:10:42.135Z,69.97
2023-03-15T06:16:04.377Z,68.60
2023-03-15T06:21:26.388Z,69.55
2023-03-15T06:26:48.108Z,68.30
2023-03-15T06:32:10.081Z,67.61
2023-03-15T06:37:35.430Z,68.44
2023-03-15T06:42:57.436Z,68.85
2023-03-15T06:48:19.207Z,69.82
2023-03-15T06:53:40.959Z,69.26
2023-03-15T06:59:03.530Z,69.08
2023-03-15T07:04:25.264Z,67.99
2023-03-15T07:09:47.034Z,66.07
2023-03-15T07:15:09.284Z,66.77
2023-03-15T07:20:31.600Z,65.46
2023-03-15T07:25:55.678Z,66.06
2023-03-15T07:31:17.730Z,63.72
2023-03-15T07:36:40.559Z,64.34
2023-03-15T07:42:02.395Z,63.08
2023-03-15T07:47:24.218Z,64.12
2023-03-15T07:52:45.989Z,64.97
2023-03-15T07:58:07.710Z,63.46
2023-03-15T08:03:29.518Z,64.91
2023-03-15T08:08:51.325Z,63.22
2023-03-15T08:14:13.022Z,62.30
2023-03-15T08:19:34.747Z,63.18
2023-03-15T08:24:57.599Z,61.67
2023-03-15T08:30:21.059Z,62.89
2023-03-15T08:35:42.935Z,61.94
2023-03-15T08:41:04.843Z,62.60
2023-03-15T08:46:27.646Z,61.33
2023-03-15T08:51:49.464Z,60.40
2023-03-15T08:57:12.719Z,60.58
2023-03-15T09:02:35.014Z,57.38
2023-03-15T09:07:56.831Z,58.78
2023-03-15T09:13:18.537Z,57.75
2023-03-15T09:18:44.647Z,54.91
2023-03-15T09:24:06.791Z,55.87
2023-03-15T09:29:28.607Z,55.24
2023-03-15T09:34:51.210Z,54.57
2023-03-15T09:40:22.110Z,55.58
2023-03-15T09:46:05.681Z,55.07
2023-03-15T09:51:57.177Z,52.97
2023-03-15T09:57:22.855Z,52.07
2023-03-15T10:03:01.397Z,52.65
2023-03-15T10:08:24.846Z,53.86
2023-03-15T10:14:13.107Z,54.33
2023-03-15T10:19:59.037Z,52.70
2023-03-15T10:25:29.497Z,52.12
2023-03-15T10:30:52.254Z,51.65
2023-03-15T10:36:22.068Z,51.92
2023-03-15T10:41:46.677Z,50.03
2023-03-15T10:47:24.038Z,49.97
2023-03-15T10:52:46.357Z,50.13
2023-03-15T10:58:31.327Z,49.63
2023-03-15T11:04:13.885Z,50.88
2023-03-15T11:10:06.970Z,50.97
2023-03-15T11:15:28.711Z,51.51
2023-03-15T11:20:54.553Z,51.41
2023-03-15T11:26:33.015Z,51.88
2023-03-15T11:31:56.163Z,52.73
2023-03-15T11:37:22.750Z,50.97
2023-03-15T11:42:51.783Z,51.76
2023-03-15T11:48:31.178Z,50.71
2023-03-15T11:54:11.432Z,47.58
2023-03-15T11:59:36.631Z,46.62
2023-03-15T12:05:01.773Z,45.97
2023-03-15T12:10:33.708Z,46.60
2023-03-15T12:15:56.264Z,45.27
2023-03-15T12:21:31.474Z,47.61
2023-03-15T12:27:03.757Z,47.19
2023-03-15T12:32:27.042Z,47.67
2023-03-15T12:37:52.084Z,47.26
2023-03-15T12:43:13.824Z,47.42
2023-03-15T12:48:35.662Z,47.73
2023-03-15T12:53:57.871Z,47.21
2023-03-15T12:59:19.536Z,48.71
2023-03-15T13:04:42.069Z,50.82
2023-03-15T13:10:35.438Z,56.66
2023-03-15T13:16:22.164Z,57.26
2023-03-15T13:22:04.960Z,59.12
2023-03-15T13:27:45.219Z,59.14
2023-03-15T13:33:22.791Z,58.77
2023-03-15T13:38:53.292Z,59.22
2023-03-15T13:44:23.662Z,59.97
2023-03-15T13:49:45.435Z,59.00
2023-03-15T13:55:07.975Z,61.92
2023-03-15T14:00:33.842Z,61.71
2023-03-15T14:05:58.102Z,62.50
2023-03-15T14:11:37.066Z,65.63
2023-03-15T14:17:05.837Z,66.32
2023-03-15T14:22:28.370Z,66.63
2023-03-15T14:27:50.543Z,65.75
2023-03-15T14:33:26.730Z,63.40
2023-03-15T14:38:57.894Z,63.40
2023-03-15T14:44:20.330Z,63.71
2023-03-15T14:49:42.097Z,63.60
2023-03-15T14:55:04.557Z,63.46
2023-03-15T15:00:26.896Z,68.02
2023-03-15T15:05:48.844Z,71.65
2023-03-15T15:11:11.072Z,76.16
2023-03-15T15:16:32.963Z,77.88
2023-03-15T15:21:54.909Z,80.18
2023-03-15T15:27:16.673Z,80.85
2023-03-15T15:32:38.446Z,80.49
2023-03-15T15:38:00.286Z,81.16
2023-03-15T15:43:22.049Z,83.54
2023-03-15T15:48:43.975Z,85.16
2023-03-15T15:54:06.118Z,84.40
2023-03-15T15:59:28.282Z,84.87
2023-03-15T16:04:50.496Z,86.31
2023-03-15T16:10:19.603Z,87.32
2023-03-15T16:15:41.414Z,85.22
2023-03-15T16:21:03.297Z,85.59
2023-03-15T16:26:25.248Z,85.87
2023-03-15T16:31:48.902Z,87.95
2023-03-15T16:37:13.651Z,86.72
2023-03-15T16:42:35.360Z,87.86
2023-03-15T16:47:57.138Z,86.15
2023-03-15T16:53:19.333Z,84.98
2023-03-15T16:58:42.635Z,81.86
2023-03-15T17:04:04.800Z,83.96
2023-03-15T17:09:28.624Z,83.26
2023-03-15T17:14:51.880Z,86.64
2023-03-15T17:20:14.221Z,87.28
2023-03-15T17:25:36.395Z,88.73
2023-03-15T17:31:14.220Z,89.44
2023-03-15T17:36:41.085Z,90.76
2023-03-15T17:42:02.889Z,90.38
2023-03-15T17:47:24.652Z,89.00
2023-03-15T17:52:54.669Z,89.75
2023-03-15T17:58:19.774Z,88.67
2023-03-15T18:03:43.677Z,88.02
2023-03-15T18:09:05.968Z,85.69
2023-03-15T18:14:27.820Z,86.09
2023-03-15T18:19:49.653Z,85.96
2023-03-15T18:25:21.525Z,88.67
2023-03-15T18:30:44.721Z,89.96
2023-03-15T18:36:07.206Z,89.79
2023-03-15T18:41:29.012Z,89.95
2023-03-15T18:46:50.731Z,90.15
2023-03-15T18:52:14.434Z,90.15
2023-03-15T18:57:36.999Z,89.95
2023-03-15T19:03:00.677Z,88.63
2023-03-15T19:08:23.575Z,88.48
2023-03-15T19:13:50.881Z,88.42
2023-03-15T19:19:12.653Z,88.25
2023-03-15T19:24:36.211Z,87.76
2023-03-15T19:29:58.277Z,87.15
2023-03-15T19:35:20.994Z,85.73
2023-03-15T19:40:42.812Z,88.77
2023-03-15T19:46:07.852Z,88.33
2023-03-15T19:51:30.565Z,88.67
2023-03-15T19:56:53.978Z,90.77
2023-03-15T20:02:15.784Z,90.63
2023-03-15T20:07:38.261Z,89.58
2023-03-15T20:13:00.053Z,90.62
2023-03-15T20:18:21.779Z,88.70
2023-03-15T20:23:43.907Z,88.29
2023-03-15T20:29:05.706Z,88.88
2023-03-15T20:34:27.712Z,90.16
2023-03-15T20:39:50.287Z,88.76
2023-03-15T20:45:13.714Z,90.10
2023-03-15T20:50:35.762Z,90.12
2023-03-15T20:55:57.594Z,90.39
2023-03-15T21:01:19.687Z,89.97
2023-03-15T21:06:41.552Z,89.81
2023-03-15T21:12:03.609Z,90.16
2023-03-15T21:17:25.381Z,88.92
2023-03-15T21:22:47.264Z,88.66
2023-03-15T21:28:09.029Z,87.55
2023-03-15T21:33:32.501Z,86.79
2023-03-15T21:38:54.223Z,88.13
2023-03-15T21:44:16.308Z,89.03
2023-03-15T21:49:38.823Z,88.75
2023-03-15T21:55:01.140Z,90.82
2023-03-15T22:00:24.082Z,91.49
2023-03-15T22:05:46.469Z,92.04
2023-03-15T22:11:08.272Z,91.88
2023-03-15T22:16:30.043Z,92.30
2023-03-15T22:21:52.041Z,90.91
2023-03-15T22:27:13.749Z,91.24
2023-03-15T22:32:35.516Z,90.98
2023-03-15T22:37:57.376Z,90.25
2023-03-15T22:43:19.834Z,89.94
2023-03-15T22:48:41.601Z,89.37
2023-03-15T22:54:03.386Z,90.48
2023-03-15T22:59:28.945Z,90.78
2023-03-15T23:04:51.838Z,89.66
2023-03-15T23:10:14.186Z,90.51
2023-03-15T23:15:35.983Z,91.52
2023-03-15T23:21:06.115Z,92.31
2023-03-15T23:26:27.926Z,92.90
2023-03-15T23:31:50.442Z,92.47
2023-03-15T23:37:15.040Z,93.47
2023-03-15T23:42:37.699Z,92.76
2023-03-15T23:47:59.518Z,92.63
2023-03-15T23:53:22.123Z,91.96
2023-03-15T23:58:43.828Z,89.77
